Read Island, Canada
Current Conditions -  °F | °C
As of 8:00 AM on Saturday 25 Oct 2014 (Local Time) from CYBL Reporting Station
Light Rain Light Rain  
Wind Chill: 41°   Ceiling: 3300
Heat Index: 45°   Visibility: 6mi
Dew Point: 43°   Wind: 6mph
Humidity: 93%   Direction: 270°W
Pressure: 29.52"   Gusts: NA
Location:  50.18°N, 125.09°W
Report Text: CYBL 251500Z 27005KT 6SM -RA BR FEW007 OVC033 07/06 A2952 RMK SF2SC6 SLP997
Loading
Personal Weather Stations






























Interactive Weather Map
Tropical Storm Tracking
New forecast layout! Learn more

10-Day Weather Forecast

Advertisements
Track Severe Weather on mobile